Terminal Aerodrome Forecast
Issued by NWS Mt. Holly, NJ

Home | Current Version | Previous Version | Text Only | Print | Product List | Glossary On
Versions: 1 2 3 4 5 6 7 8 9 10 11 12 13
000
FTUS41 KPHI 212300
TAFILG
TAF
KILG 212338Z 2200/2224 32006KT P6SM SCT050
     FM220400 02008KT 6SM -RA SCT025 OVC040
     FM220900 02010KT 4SM -RA BR BKN008
     FM221600 02012G20KT 4SM RA BKN015
     FM222300 35019KT P6SM -SHRA OVC025=

USA.gov is the U.S. government's official web portal to all federal, state and local government web resources and services.